sensor_id;sensor_type;location;lat;lon;timestamp;P1;durP1;ratioP1;P2;durP2;ratioP2
36283;SDS011;56085;48.910;9.478;2023-11-21T00:01:14;4.40;;;1.40;;
36283;SDS011;56085;48.910;9.478;2023-11-21T00:03:40;5.40;;;1.02;;
36283;SDS011;56085;48.910;9.478;2023-11-21T00:06:05;7.18;;;1.30;;
36283;SDS011;56085;48.910;9.478;2023-11-21T00:08:34;3.63;;;1.05;;
36283;SDS011;56085;48.910;9.478;2023-11-21T00:11:00;4.05;;;1.17;;
36283;SDS011;56085;48.910;9.478;2023-11-21T00:13:25;3.72;;;1.30;;
36283;SDS011;56085;48.910;9.478;2023-11-21T00:15:51;4.90;;;1.45;;
36283;SDS011;56085;48.910;9.478;2023-11-21T00:18:16;3.75;;;1.00;;
36283;SDS011;56085;48.910;9.478;2023-11-21T00:20:41;6.35;;;1.33;;
36283;SDS011;56085;48.910;9.478;2023-11-21T00:23:07;3.40;;;1.08;;
36283;SDS011;56085;48.910;9.478;2023-11-21T00:25:32;5.55;;;1.17;;
36283;SDS011;56085;48.910;9.478;2023-11-21T00:27:58;6.82;;;1.88;;
36283;SDS011;56085;48.910;9.478;2023-11-21T00:30:23;1.83;;;0.77;;
36283;SDS011;56085;48.910;9.478;2023-11-21T00:32:48;3.20;;;1.00;;
36283;SDS011;56085;48.910;9.478;2023-11-21T00:35:14;2.92;;;0.93;;
36283;SDS011;56085;48.910;9.478;2023-11-21T00:37:39;3.58;;;1.25;;
36283;SDS011;56085;48.910;9.478;2023-11-21T00:40:05;4.00;;;1.10;;
36283;SDS011;56085;48.910;9.478;2023-11-21T00:42:31;4.55;;;1.27;;
36283;SDS011;56085;48.910;9.478;2023-11-21T00:44:59;3.78;;;1.50;;
36283;SDS011;56085;48.910;9.478;2023-11-21T00:47:24;3.42;;;1.13;;
36283;SDS011;56085;48.910;9.478;2023-11-21T00:49:50;2.72;;;1.10;;
36283;SDS011;56085;48.910;9.478;2023-11-21T00:52:15;3.80;;;1.02;;
36283;SDS011;56085;48.910;9.478;2023-11-21T00:54:41;4.28;;;0.90;;
36283;SDS011;56085;48.910;9.478;2023-11-21T00:57:06;3.65;;;1.58;;
36283;SDS011;56085;48.910;9.478;2023-11-21T00:59:33;5.47;;;1.52;;
36283;SDS011;56085;48.910;9.478;2023-11-21T01:01:59;5.20;;;1.52;;
36283;SDS011;56085;48.910;9.478;2023-11-21T01:04:26;3.45;;;1.08;;
36283;SDS011;56085;48.910;9.478;2023-11-21T01:06:51;5.18;;;1.10;;
36283;SDS011;56085;48.910;9.478;2023-11-21T01:09:17;4.20;;;1.55;;
36283;SDS011;56085;48.910;9.478;2023-11-21T01:11:43;6.93;;;1.75;;
36283;SDS011;56085;48.910;9.478;2023-11-21T01:14:08;3.95;;;1.38;;
36283;SDS011;56085;48.910;9.478;2023-11-21T01:16:35;1.83;;;0.93;;
36283;SDS011;56085;48.910;9.478;2023-11-21T01:19:01;4.68;;;1.58;;
36283;SDS011;56085;48.910;9.478;2023-11-21T01:21:26;8.75;;;1.90;;
36283;SDS011;56085;48.910;9.478;2023-11-21T01:23:53;3.83;;;1.20;;
36283;SDS011;56085;48.910;9.478;2023-11-21T01:26:20;4.95;;;1.13;;
36283;SDS011;56085;48.910;9.478;2023-11-21T01:28:45;8.07;;;1.25;;
36283;SDS011;56085;48.910;9.478;2023-11-21T01:31:13;3.28;;;1.42;;
36283;SDS011;56085;48.910;9.478;2023-11-21T01:33:39;3.95;;;0.93;;
36283;SDS011;56085;48.910;9.478;2023-11-21T01:36:05;5.03;;;1.10;;
36283;SDS011;56085;48.910;9.478;2023-11-21T01:38:30;4.38;;;1.25;;
36283;SDS011;56085;48.910;9.478;2023-11-21T01:40:57;3.97;;;0.95;;
36283;SDS011;56085;48.910;9.478;2023-11-21T01:43:22;4.60;;;1.20;;
36283;SDS011;56085;48.910;9.478;2023-11-21T01:45:48;3.53;;;1.27;;
36283;SDS011;56085;48.910;9.478;2023-11-21T01:48:14;2.47;;;1.02;;
36283;SDS011;56085;48.910;9.478;2023-11-21T01:50:41;4.40;;;0.82;;
36283;SDS011;56085;48.910;9.478;2023-11-21T01:53:07;4.60;;;1.52;;
36283;SDS011;56085;48.910;9.478;2023-11-21T01:55:34;3.72;;;1.13;;
36283;SDS011;56085;48.910;9.478;2023-11-21T01:57:59;6.50;;;1.45;;
36283;SDS011;56085;48.910;9.478;2023-11-21T02:00:25;6.25;;;1.20;;
36283;SDS011;56085;48.910;9.478;2023-11-21T02:02:52;3.95;;;1.27;;
36283;SDS011;56085;48.910;9.478;2023-11-21T02:05:19;2.65;;;0.90;;
36283;SDS011;56085;48.910;9.478;2023-11-21T02:07:46;3.08;;;1.20;;
36283;SDS011;56085;48.910;9.478;2023-11-21T02:10:13;6.20;;;1.55;;
36283;SDS011;56085;48.910;9.478;2023-11-21T02:12:40;3.47;;;0.98;;
36283;SDS011;56085;48.910;9.478;2023-11-21T02:15:07;4.60;;;1.05;;
36283;SDS011;56085;48.910;9.478;2023-11-21T02:17:40;2.28;;;0.70;;
36283;SDS011;56085;48.910;9.478;2023-11-21T02:20:06;4.70;;;0.88;;
36283;SDS011;56085;48.910;9.478;2023-11-21T02:22:32;2.92;;;0.82;;
36283;SDS011;56085;48.910;9.478;2023-11-21T02:25:02;0.80;;;0.60;;
36283;SDS011;56085;48.910;9.478;2023-11-21T02:27:28;2.70;;;0.60;;
36283;SDS011;56085;48.910;9.478;2023-11-21T02:29:53;3.17;;;1.02;;
36283;SDS011;56085;48.910;9.478;2023-11-21T02:32:19;1.10;;;0.60;;
36283;SDS011;56085;48.910;9.478;2023-11-21T02:34:47;1.45;;;0.50;;
36283;SDS011;56085;48.910;9.478;2023-11-21T02:37:13;2.92;;;0.65;;
36283;SDS011;56085;48.910;9.478;2023-11-21T02:39:39;5.82;;;0.80;;
36283;SDS011;56085;48.910;9.478;2023-11-21T02:42:04;4.70;;;0.88;;
36283;SDS011;56085;48.910;9.478;2023-11-21T02:44:29;4.75;;;0.73;;
36283;SDS011;56085;48.910;9.478;2023-11-21T02:46:54;3.83;;;1.02;;
36283;SDS011;56085;48.910;9.478;2023-11-21T02:49:22;2.28;;;0.80;;
36283;SDS011;56085;48.910;9.478;2023-11-21T02:51:48;1.77;;;0.70;;
36283;SDS011;56085;48.910;9.478;2023-11-21T02:54:13;3.45;;;1.10;;
36283;SDS011;56085;48.910;9.478;2023-11-21T02:56:39;5.72;;;1.17;;
36283;SDS011;56085;48.910;9.478;2023-11-21T02:59:05;2.25;;;0.98;;
36283;SDS011;56085;48.910;9.478;2023-11-21T03:01:30;3.20;;;0.80;;
36283;SDS011;56085;48.910;9.478;2023-11-21T03:03:56;2.80;;;0.73;;
36283;SDS011;56085;48.910;9.478;2023-11-21T03:06:22;2.97;;;0.90;;
36283;SDS011;56085;48.910;9.478;2023-11-21T03:08:47;4.88;;;0.80;;
36283;SDS011;56085;48.910;9.478;2023-11-21T03:11:13;0.93;;;0.43;;
36283;SDS011;56085;48.910;9.478;2023-11-21T03:13:42;2.30;;;0.65;;
36283;SDS011;56085;48.910;9.478;2023-11-21T03:16:08;1.10;;;0.52;;
36283;SDS011;56085;48.910;9.478;2023-11-21T03:18:34;2.50;;;1.10;;
36283;SDS011;56085;48.910;9.478;2023-11-21T03:20:59;4.15;;;0.55;;
36283;SDS011;56085;48.910;9.478;2023-11-21T03:23:24;1.70;;;0.70;;
36283;SDS011;56085;48.910;9.478;2023-11-21T03:25:50;3.50;;;0.73;;
36283;SDS011;56085;48.910;9.478;2023-11-21T03:28:15;4.75;;;0.80;;
36283;SDS011;56085;48.910;9.478;2023-11-21T03:30:40;3.13;;;0.60;;
36283;SDS011;56085;48.910;9.478;2023-11-21T03:33:06;1.00;;;0.57;;
36283;SDS011;56085;48.910;9.478;2023-11-21T03:35:32;2.78;;;0.73;;
36283;SDS011;56085;48.910;9.478;2023-11-21T03:37:58;2.58;;;0.68;;
36283;SDS011;56085;48.910;9.478;2023-11-21T03:40:23;2.42;;;0.90;;
36283;SDS011;56085;48.910;9.478;2023-11-21T03:42:48;1.48;;;0.50;;
36283;SDS011;56085;48.910;9.478;2023-11-21T03:45:15;1.98;;;0.60;;
36283;SDS011;56085;48.910;9.478;2023-11-21T03:47:41;1.58;;;0.60;;
36283;SDS011;56085;48.910;9.478;2023-11-21T03:50:07;1.42;;;0.70;;
36283;SDS011;56085;48.910;9.478;2023-11-21T03:52:34;2.22;;;0.88;;
36283;SDS011;56085;48.910;9.478;2023-11-21T03:55:00;2.20;;;0.65;;
36283;SDS011;56085;48.910;9.478;2023-11-21T03:57:26;2.72;;;0.65;;
36283;SDS011;56085;48.910;9.478;2023-11-21T03:59:52;1.67;;;0.60;;
36283;SDS011;56085;48.910;9.478;2023-11-21T04:02:18;3.53;;;0.90;;
36283;SDS011;56085;48.910;9.478;2023-11-21T04:04:44;1.45;;;0.57;;
36283;SDS011;56085;48.910;9.478;2023-11-21T04:07:09;2.13;;;0.80;;
36283;SDS011;56085;48.910;9.478;2023-11-21T04:09:34;1.15;;;0.57;;
36283;SDS011;56085;48.910;9.478;2023-11-21T04:12:01;1.85;;;0.70;;
36283;SDS011;56085;48.910;9.478;2023-11-21T04:14:26;1.30;;;0.57;;
36283;SDS011;56085;48.910;9.478;2023-11-21T04:16:52;2.47;;;0.85;;
36283;SDS011;56085;48.910;9.478;2023-11-21T04:19:18;2.35;;;0.95;;
36283;SDS011;56085;48.910;9.478;2023-11-21T04:21:44;4.28;;;0.80;;
36283;SDS011;56085;48.910;9.478;2023-11-21T04:24:09;2.22;;;1.02;;
36283;SDS011;56085;48.910;9.478;2023-11-21T04:26:35;5.43;;;1.20;;
36283;SDS011;56085;48.910;9.478;2023-11-21T04:29:00;1.80;;;0.90;;
36283;SDS011;56085;48.910;9.478;2023-11-21T04:31:26;1.63;;;0.70;;
36283;SDS011;56085;48.910;9.478;2023-11-21T04:33:51;3.50;;;1.25;;
36283;SDS011;56085;48.910;9.478;2023-11-21T04:36:16;1.95;;;0.90;;
36283;SDS011;56085;48.910;9.478;2023-11-21T04:38:42;1.58;;;0.90;;
36283;SDS011;56085;48.910;9.478;2023-11-21T04:41:07;1.95;;;1.00;;
36283;SDS011;56085;48.910;9.478;2023-11-21T04:43:33;3.08;;;1.10;;
36283;SDS011;56085;48.910;9.478;2023-11-21T04:45:58;3.70;;;1.15;;
36283;SDS011;56085;48.910;9.478;2023-11-21T04:48:24;2.95;;;1.10;;
36283;SDS011;56085;48.910;9.478;2023-11-21T04:50:50;3.55;;;1.20;;
36283;SDS011;56085;48.910;9.478;2023-11-21T04:53:17;1.38;;;0.68;;
36283;SDS011;56085;48.910;9.478;2023-11-21T04:55:43;1.67;;;0.95;;
36283;SDS011;56085;48.910;9.478;2023-11-21T04:58:09;3.90;;;0.98;;
36283;SDS011;56085;48.910;9.478;2023-11-21T05:00:35;2.90;;;1.15;;
36283;SDS011;56085;48.910;9.478;2023-11-21T05:03:01;3.53;;;1.00;;
36283;SDS011;56085;48.910;9.478;2023-11-21T05:05:27;2.88;;;1.30;;
36283;SDS011;56085;48.910;9.478;2023-11-21T05:07:52;5.50;;;1.33;;
36283;SDS011;56085;48.910;9.478;2023-11-21T05:10:18;4.07;;;1.45;;
36283;SDS011;56085;48.910;9.478;2023-11-21T05:12:44;3.05;;;1.20;;
36283;SDS011;56085;48.910;9.478;2023-11-21T05:15:10;3.75;;;1.42;;
36283;SDS011;56085;48.910;9.478;2023-11-21T05:17:40;2.15;;;1.13;;
36283;SDS011;56085;48.910;9.478;2023-11-21T05:20:12;3.35;;;1.50;;
36283;SDS011;56085;48.910;9.478;2023-11-21T05:22:42;5.68;;;2.22;;
36283;SDS011;56085;48.910;9.478;2023-11-21T05:25:08;6.15;;;1.70;;
36283;SDS011;56085;48.910;9.478;2023-11-21T05:27:35;4.20;;;2.00;;
36283;SDS011;56085;48.910;9.478;2023-11-21T05:30:01;8.80;;;4.68;;
36283;SDS011;56085;48.910;9.478;2023-11-21T05:32:27;4.95;;;1.70;;
36283;SDS011;56085;48.910;9.478;2023-11-21T05:34:52;2.08;;;0.80;;
36283;SDS011;56085;48.910;9.478;2023-11-21T05:37:18;6.43;;;3.60;;
36283;SDS011;56085;48.910;9.478;2023-11-21T05:39:43;5.22;;;2.53;;
36283;SDS011;56085;48.910;9.478;2023-11-21T05:42:08;2.30;;;1.13;;
36283;SDS011;56085;48.910;9.478;2023-11-21T05:44:35;8.45;;;4.88;;
36283;SDS011;56085;48.910;9.478;2023-11-21T05:47:02;4.70;;;2.03;;
36283;SDS011;56085;48.910;9.478;2023-11-21T05:49:28;4.20;;;1.77;;
36283;SDS011;56085;48.910;9.478;2023-11-21T05:51:54;2.75;;;1.77;;
36283;SDS011;56085;48.910;9.478;2023-11-21T05:54:20;0.63;;;0.63;;
36283;SDS011;56085;48.910;9.478;2023-11-21T05:56:45;3.45;;;1.02;;
36283;SDS011;56085;48.910;9.478;2023-11-21T05:59:12;4.72;;;1.08;;
36283;SDS011;56085;48.910;9.478;2023-11-21T06:01:37;1.98;;;1.10;;
36283;SDS011;56085;48.910;9.478;2023-11-21T06:04:03;2.63;;;0.98;;
36283;SDS011;56085;48.910;9.478;2023-11-21T06:06:30;1.70;;;0.70;;
36283;SDS011;56085;48.910;9.478;2023-11-21T06:08:56;1.65;;;1.00;;
36283;SDS011;56085;48.910;9.478;2023-11-21T06:11:22;2.65;;;1.20;;
36283;SDS011;56085;48.910;9.478;2023-11-21T06:13:47;3.30;;;1.38;;
36283;SDS011;56085;48.910;9.478;2023-11-21T06:16:13;4.38;;;1.50;;
36283;SDS011;56085;48.910;9.478;2023-11-21T06:18:41;3.40;;;1.52;;
36283;SDS011;56085;48.910;9.478;2023-11-21T06:21:09;3.67;;;1.52;;
36283;SDS011;56085;48.910;9.478;2023-11-21T06:23:34;3.13;;;1.60;;
36283;SDS011;56085;48.910;9.478;2023-11-21T06:26:00;3.63;;;1.80;;
36283;SDS011;56085;48.910;9.478;2023-11-21T06:28:26;3.10;;;1.70;;
36283;SDS011;56085;48.910;9.478;2023-11-21T06:30:51;3.53;;;1.80;;
36283;SDS011;56085;48.910;9.478;2023-11-21T06:33:18;3.80;;;1.90;;
36283;SDS011;56085;48.910;9.478;2023-11-21T06:35:43;4.60;;;2.40;;
36283;SDS011;56085;48.910;9.478;2023-11-21T06:38:09;6.57;;;3.05;;
36283;SDS011;56085;48.910;9.478;2023-11-21T06:40:35;5.10;;;2.50;;
36283;SDS011;56085;48.910;9.478;2023-11-21T06:43:00;6.38;;;2.25;;
36283;SDS011;56085;48.910;9.478;2023-11-21T06:45:26;4.90;;;2.35;;
36283;SDS011;56085;48.910;9.478;2023-11-21T06:47:51;5.13;;;2.22;;
36283;SDS011;56085;48.910;9.478;2023-11-21T06:50:16;4.72;;;1.70;;
36283;SDS011;56085;48.910;9.478;2023-11-21T06:52:42;3.58;;;1.73;;
36283;SDS011;56085;48.910;9.478;2023-11-21T06:55:08;4.90;;;1.55;;
36283;SDS011;56085;48.910;9.478;2023-11-21T06:57:33;4.07;;;1.58;;
36283;SDS011;56085;48.910;9.478;2023-11-21T06:59:59;5.88;;;2.50;;
36283;SDS011;56085;48.910;9.478;2023-11-21T07:02:24;3.53;;;1.83;;
36283;SDS011;56085;48.910;9.478;2023-11-21T07:04:50;3.22;;;1.85;;
36283;SDS011;56085;48.910;9.478;2023-11-21T07:07:15;3.67;;;1.55;;
36283;SDS011;56085;48.910;9.478;2023-11-21T07:09:40;3.92;;;1.90;;
36283;SDS011;56085;48.910;9.478;2023-11-21T07:12:06;2.83;;;1.50;;
36283;SDS011;56085;48.910;9.478;2023-11-21T07:14:35;3.90;;;1.48;;
36283;SDS011;56085;48.910;9.478;2023-11-21T07:17:01;3.97;;;1.73;;
36283;SDS011;56085;48.910;9.478;2023-11-21T07:19:27;2.85;;;1.55;;
36283;SDS011;56085;48.910;9.478;2023-11-21T07:21:52;6.45;;;1.98;;
36283;SDS011;56085;48.910;9.478;2023-11-21T07:24:18;4.90;;;2.35;;
36283;SDS011;56085;48.910;9.478;2023-11-21T07:26:43;3.40;;;1.67;;
36283;SDS011;56085;48.910;9.478;2023-11-21T07:29:09;3.83;;;2.08;;
36283;SDS011;56085;48.910;9.478;2023-11-21T07:31:34;4.00;;;1.92;;
36283;SDS011;56085;48.910;9.478;2023-11-21T07:34:00;3.65;;;1.83;;
36283;SDS011;56085;48.910;9.478;2023-11-21T07:36:26;3.63;;;1.83;;
36283;SDS011;56085;48.910;9.478;2023-11-21T07:38:51;2.28;;;1.30;;
36283;SDS011;56085;48.910;9.478;2023-11-21T07:41:17;3.22;;;1.60;;
36283;SDS011;56085;48.910;9.478;2023-11-21T07:43:43;3.92;;;1.60;;
36283;SDS011;56085;48.910;9.478;2023-11-21T07:46:10;3.85;;;1.80;;
36283;SDS011;56085;48.910;9.478;2023-11-21T07:48:37;3.65;;;2.17;;
36283;SDS011;56085;48.910;9.478;2023-11-21T07:51:03;4.55;;;1.52;;
36283;SDS011;56085;48.910;9.478;2023-11-21T07:53:29;2.92;;;1.55;;
36283;SDS011;56085;48.910;9.478;2023-11-21T07:55:55;2.88;;;1.58;;
36283;SDS011;56085;48.910;9.478;2023-11-21T07:58:27;4.05;;;1.50;;
36283;SDS011;56085;48.910;9.478;2023-11-21T08:00:52;2.78;;;1.65;;
36283;SDS011;56085;48.910;9.478;2023-11-21T08:03:18;6.18;;;1.48;;
36283;SDS011;56085;48.910;9.478;2023-11-21T08:05:43;3.78;;;1.38;;
36283;SDS011;56085;48.910;9.478;2023-11-21T08:08:08;2.28;;;1.00;;
36283;SDS011;56085;48.910;9.478;2023-11-21T08:10:34;1.58;;;0.93;;
36283;SDS011;56085;48.910;9.478;2023-11-21T08:13:00;2.92;;;1.50;;
36283;SDS011;56085;48.910;9.478;2023-11-21T08:15:26;3.28;;;1.52;;
36283;SDS011;56085;48.910;9.478;2023-11-21T08:17:51;4.55;;;2.00;;
36283;SDS011;56085;48.910;9.478;2023-11-21T08:20:17;3.72;;;1.58;;
36283;SDS011;56085;48.910;9.478;2023-11-21T08:22:43;2.83;;;1.00;;
36283;SDS011;56085;48.910;9.478;2023-11-21T08:25:09;2.08;;;1.00;;
36283;SDS011;56085;48.910;9.478;2023-11-21T08:27:34;5.00;;;1.27;;
36283;SDS011;56085;48.910;9.478;2023-11-21T08:30:00;1.10;;;0.70;;
36283;SDS011;56085;48.910;9.478;2023-11-21T08:32:26;1.85;;;0.80;;
36283;SDS011;56085;48.910;9.478;2023-11-21T08:34:51;1.88;;;0.80;;
36283;SDS011;56085;48.910;9.478;2023-11-21T08:37:17;3.60;;;0.80;;
36283;SDS011;56085;48.910;9.478;2023-11-21T08:39:47;2.92;;;0.73;;
36283;SDS011;56085;48.910;9.478;2023-11-21T08:42:13;0.93;;;0.63;;
36283;SDS011;56085;48.910;9.478;2023-11-21T08:44:39;1.30;;;0.80;;
36283;SDS011;56085;48.910;9.478;2023-11-21T08:47:05;3.80;;;1.10;;
36283;SDS011;56085;48.910;9.478;2023-11-21T08:49:31;1.05;;;0.60;;
36283;SDS011;56085;48.910;9.478;2023-11-21T08:51:57;2.47;;;1.10;;
36283;SDS011;56085;48.910;9.478;2023-11-21T08:54:24;3.63;;;0.90;;
36283;SDS011;56085;48.910;9.478;2023-11-21T08:56:51;1.75;;;0.85;;
36283;SDS011;56085;48.910;9.478;2023-11-21T08:59:17;3.95;;;1.50;;
36283;SDS011;56085;48.910;9.478;2023-11-21T09:01:42;4.05;;;1.50;;
36283;SDS011;56085;48.910;9.478;2023-11-21T09:04:08;2.78;;;1.45;;
36283;SDS011;56085;48.910;9.478;2023-11-21T09:06:33;2.33;;;1.20;;
36283;SDS011;56085;48.910;9.478;2023-11-21T09:08:58;2.30;;;1.10;;
36283;SDS011;56085;48.910;9.478;2023-11-21T09:11:24;2.72;;;1.27;;
36283;SDS011;56085;48.910;9.478;2023-11-21T09:13:50;6.07;;;1.67;;
36283;SDS011;56085;48.910;9.478;2023-11-21T09:16:16;3.45;;;1.20;;
36283;SDS011;56085;48.910;9.478;2023-11-21T09:18:42;2.67;;;1.40;;
36283;SDS011;56085;48.910;9.478;2023-11-21T09:21:07;2.97;;;1.33;;
36283;SDS011;56085;48.910;9.478;2023-11-21T09:23:33;2.90;;;1.42;;
36283;SDS011;56085;48.910;9.478;2023-11-21T09:25:59;4.28;;;1.65;;
36283;SDS011;56085;48.910;9.478;2023-11-21T09:28:25;4.38;;;1.80;;
36283;SDS011;56085;48.910;9.478;2023-11-21T09:30:52;2.55;;;1.35;;
36283;SDS011;56085;48.910;9.478;2023-11-21T09:33:18;1.67;;;1.25;;
36283;SDS011;56085;48.910;9.478;2023-11-21T09:35:43;3.60;;;1.20;;
36283;SDS011;56085;48.910;9.478;2023-11-21T09:38:09;2.47;;;1.50;;
36283;SDS011;56085;48.910;9.478;2023-11-21T09:40:36;1.92;;;1.42;;
36283;SDS011;56085;48.910;9.478;2023-11-21T09:43:02;2.38;;;1.67;;
36283;SDS011;56085;48.910;9.478;2023-11-21T09:45:34;3.40;;;1.67;;
36283;SDS011;56085;48.910;9.478;2023-11-21T09:48:00;3.42;;;1.65;;
36283;SDS011;56085;48.910;9.478;2023-11-21T09:50:26;1.52;;;1.05;;
36283;SDS011;56085;48.910;9.478;2023-11-21T09:52:57;1.65;;;1.13;;
36283;SDS011;56085;48.910;9.478;2023-11-21T09:55:35;3.45;;;1.50;;
36283;SDS011;56085;48.910;9.478;2023-11-21T09:58:03;1.85;;;1.02;;
36283;SDS011;56085;48.910;9.478;2023-11-21T10:00:32;3.67;;;1.25;;
36283;SDS011;56085;48.910;9.478;2023-11-21T10:02:58;1.70;;;1.50;;
36283;SDS011;56085;48.910;9.478;2023-11-21T10:05:24;3.63;;;1.50;;
36283;SDS011;56085;48.910;9.478;2023-11-21T10:07:50;3.42;;;1.35;;
36283;SDS011;56085;48.910;9.478;2023-11-21T10:10:16;3.25;;;1.55;;
36283;SDS011;56085;48.910;9.478;2023-11-21T10:12:43;2.90;;;1.45;;
36283;SDS011;56085;48.910;9.478;2023-11-21T10:15:14;1.33;;;1.10;;
36283;SDS011;56085;48.910;9.478;2023-11-21T10:17:41;1.45;;;0.90;;
36283;SDS011;56085;48.910;9.478;2023-11-21T10:20:13;2.95;;;1.23;;
36283;SDS011;56085;48.910;9.478;2023-11-21T10:22:40;2.42;;;1.10;;
36283;SDS011;56085;48.910;9.478;2023-11-21T10:25:07;1.30;;;0.95;;
36283;SDS011;56085;48.910;9.478;2023-11-21T10:27:34;5.35;;;1.10;;
36283;SDS011;56085;48.910;9.478;2023-11-21T10:30:02;2.83;;;1.00;;
36283;SDS011;56085;48.910;9.478;2023-11-21T10:32:30;1.25;;;0.75;;
36283;SDS011;56085;48.910;9.478;2023-11-21T10:34:59;1.80;;;0.98;;
36283;SDS011;56085;48.910;9.478;2023-11-21T10:37:25;2.13;;;0.82;;
36283;SDS011;56085;48.910;9.478;2023-11-21T10:39:56;1.20;;;0.98;;
36283;SDS011;56085;48.910;9.478;2023-11-21T10:42:22;1.50;;;0.85;;
36283;SDS011;56085;48.910;9.478;2023-11-21T10:44:49;2.38;;;0.90;;
36283;SDS011;56085;48.910;9.478;2023-11-21T10:47:15;3.33;;;0.82;;
36283;SDS011;56085;48.910;9.478;2023-11-21T10:49:41;0.70;;;0.60;;
36283;SDS011;56085;48.910;9.478;2023-11-21T10:52:06;2.28;;;0.60;;
36283;SDS011;56085;48.910;9.478;2023-11-21T10:54:31;2.42;;;1.17;;
36283;SDS011;56085;48.910;9.478;2023-11-21T10:56:57;4.65;;;1.25;;
36283;SDS011;56085;48.910;9.478;2023-11-21T10:59:30;1.35;;;0.93;;
36283;SDS011;56085;48.910;9.478;2023-11-21T11:01:59;2.17;;;1.00;;
36283;SDS011;56085;48.910;9.478;2023-11-21T11:04:31;2.05;;;0.90;;
36283;SDS011;56085;48.910;9.478;2023-11-21T11:06:57;0.73;;;0.63;;
36283;SDS011;56085;48.910;9.478;2023-11-21T11:09:26;1.27;;;0.70;;
36283;SDS011;56085;48.910;9.478;2023-11-21T11:11:55;1.67;;;0.70;;
36283;SDS011;56085;48.910;9.478;2023-11-21T11:14:20;2.22;;;0.80;;
36283;SDS011;56085;48.910;9.478;2023-11-21T11:16:50;1.77;;;0.80;;
36283;SDS011;56085;48.910;9.478;2023-11-21T11:19:16;3.28;;;0.80;;
36283;SDS011;56085;48.910;9.478;2023-11-21T11:35:33;1.45;;;0.90;;
36283;SDS011;56085;48.910;9.478;2023-11-21T11:38:07;0.93;;;0.82;;
36283;SDS011;56085;48.910;9.478;2023-11-21T11:40:40;1.33;;;0.55;;
36283;SDS011;56085;48.910;9.478;2023-11-21T11:43:11;0.80;;;0.60;;
36283;SDS011;56085;48.910;9.478;2023-11-21T11:45:37;1.60;;;0.70;;
36283;SDS011;56085;48.910;9.478;2023-11-21T11:48:07;1.25;;;0.90;;
36283;SDS011;56085;48.910;9.478;2023-11-21T11:50:32;0.77;;;0.60;;
36283;SDS011;56085;48.910;9.478;2023-11-21T11:53:12;1.25;;;0.88;;
36283;SDS011;56085;48.910;9.478;2023-11-21T11:55:39;1.02;;;0.70;;
36283;SDS011;56085;48.910;9.478;2023-11-21T11:58:05;2.63;;;0.60;;
36283;SDS011;56085;48.910;9.478;2023-11-21T12:02:58;1.67;;;0.90;;
36283;SDS011;56085;48.910;9.478;2023-11-21T12:05:28;1.35;;;0.60;;
36283;SDS011;56085;48.910;9.478;2023-11-21T12:08:00;0.90;;;0.70;;
36283;SDS011;56085;48.910;9.478;2023-11-21T12:10:28;0.75;;;0.60;;
36283;SDS011;56085;48.910;9.478;2023-11-21T12:12:56;1.00;;;0.70;;
36283;SDS011;56085;48.910;9.478;2023-11-21T12:15:23;1.35;;;0.77;;
36283;SDS011;56085;48.910;9.478;2023-11-21T12:17:50;3.38;;;1.05;;
36283;SDS011;56085;48.910;9.478;2023-11-21T12:20:18;1.92;;;1.10;;
36283;SDS011;56085;48.910;9.478;2023-11-21T12:22:48;1.25;;;0.63;;
36283;SDS011;56085;48.910;9.478;2023-11-21T12:25:19;1.65;;;0.90;;
36283;SDS011;56085;48.910;9.478;2023-11-21T12:27:54;0.98;;;0.47;;
36283;SDS011;56085;48.910;9.478;2023-11-21T12:30:24;1.10;;;0.80;;
36283;SDS011;56085;48.910;9.478;2023-11-21T12:32:53;4.03;;;0.88;;
36283;SDS011;56085;48.910;9.478;2023-11-21T12:35:41;1.25;;;0.85;;
36283;SDS011;56085;48.910;9.478;2023-11-21T12:38:07;0.80;;;0.60;;
36283;SDS011;56085;48.910;9.478;2023-11-21T12:40:36;0.63;;;0.63;;
36283;SDS011;56085;48.910;9.478;2023-11-21T12:43:01;2.55;;;0.60;;
36283;SDS011;56085;48.910;9.478;2023-11-21T12:45:29;1.98;;;0.60;;
36283;SDS011;56085;48.910;9.478;2023-11-21T12:47:56;0.60;;;0.50;;
36283;SDS011;56085;48.910;9.478;2023-11-21T12:50:25;1.05;;;0.60;;
36283;SDS011;56085;48.910;9.478;2023-11-21T12:53:00;1.05;;;0.60;;
36283;SDS011;56085;48.910;9.478;2023-11-21T12:55:29;1.08;;;0.68;;
36283;SDS011;56085;48.910;9.478;2023-11-21T12:57:57;1.08;;;0.60;;
36283;SDS011;56085;48.910;9.478;2023-11-21T13:00:40;1.02;;;0.68;;
36283;SDS011;56085;48.910;9.478;2023-11-21T13:03:11;2.05;;;0.75;;
36283;SDS011;56085;48.910;9.478;2023-11-21T13:05:38;1.25;;;0.90;;
36283;SDS011;56085;48.910;9.478;2023-11-21T13:08:08;1.15;;;0.80;;
36283;SDS011;56085;48.910;9.478;2023-11-21T13:10:36;1.73;;;1.10;;
36283;SDS011;56085;48.910;9.478;2023-11-21T13:13:05;1.48;;;0.90;;
36283;SDS011;56085;48.910;9.478;2023-11-21T13:15:36;1.25;;;0.80;;
36283;SDS011;56085;48.910;9.478;2023-11-21T13:18:06;1.17;;;0.80;;
36283;SDS011;56085;48.910;9.478;2023-11-21T13:20:32;1.25;;;0.85;;
36283;SDS011;56085;48.910;9.478;2023-11-21T13:22:58;1.70;;;0.80;;
36283;SDS011;56085;48.910;9.478;2023-11-21T13:25:33;1.20;;;1.00;;
36283;SDS011;56085;48.910;9.478;2023-11-21T13:27:59;2.22;;;1.20;;
36283;SDS011;56085;48.910;9.478;2023-11-21T13:30:26;2.67;;;0.80;;
36283;SDS011;56085;48.910;9.478;2023-11-21T13:32:52;1.80;;;1.02;;
36283;SDS011;56085;48.910;9.478;2023-11-21T13:35:22;5.05;;;2.47;;
36283;SDS011;56085;48.910;9.478;2023-11-21T13:38:23;4.35;;;3.10;;
36283;SDS011;56085;48.910;9.478;2023-11-21T13:40:52;2.88;;;1.27;;
36283;SDS011;56085;48.910;9.478;2023-11-21T13:43:22;3.53;;;1.30;;
36283;SDS011;56085;48.910;9.478;2023-11-21T13:45:50;1.58;;;0.90;;
36283;SDS011;56085;48.910;9.478;2023-11-21T13:48:33;1.60;;;0.90;;
36283;SDS011;56085;48.910;9.478;2023-11-21T13:51:10;1.33;;;0.80;;
36283;SDS011;56085;48.910;9.478;2023-11-21T13:53:42;2.35;;;0.68;;
36283;SDS011;56085;48.910;9.478;2023-11-21T13:56:10;1.45;;;0.75;;
36283;SDS011;56085;48.910;9.478;2023-11-21T13:58:36;1.45;;;0.75;;
36283;SDS011;56085;48.910;9.478;2023-11-21T14:01:24;1.92;;;0.75;;
36283;SDS011;56085;48.910;9.478;2023-11-21T14:03:58;0.95;;;0.70;;
36283;SDS011;56085;48.910;9.478;2023-11-21T14:06:54;1.58;;;0.60;;
36283;SDS011;56085;48.910;9.478;2023-11-21T14:09:21;1.00;;;0.60;;
36283;SDS011;56085;48.910;9.478;2023-11-21T14:11:57;1.50;;;0.50;;
36283;SDS011;56085;48.910;9.478;2023-11-21T14:14:26;2.05;;;0.60;;
36283;SDS011;56085;48.910;9.478;2023-11-21T14:16:55;1.67;;;0.50;;
36283;SDS011;56085;48.910;9.478;2023-11-21T14:19:22;0.52;;;0.35;;
36283;SDS011;56085;48.910;9.478;2023-11-21T14:21:52;0.88;;;0.60;;
36283;SDS011;56085;48.910;9.478;2023-11-21T14:24:17;0.40;;;0.40;;
36283;SDS011;56085;48.910;9.478;2023-11-21T14:26:43;1.70;;;0.73;;
36283;SDS011;56085;48.910;9.478;2023-11-21T14:29:13;3.08;;;0.82;;
36283;SDS011;56085;48.910;9.478;2023-11-21T14:31:41;2.33;;;1.02;;
36283;SDS011;56085;48.910;9.478;2023-11-21T14:34:08;1.48;;;0.90;;
36283;SDS011;56085;48.910;9.478;2023-11-21T14:36:34;2.92;;;1.10;;
36283;SDS011;56085;48.910;9.478;2023-11-21T14:39:01;1.65;;;0.90;;
36283;SDS011;56085;48.910;9.478;2023-11-21T14:41:28;1.52;;;0.70;;
36283;SDS011;56085;48.910;9.478;2023-11-21T14:43:54;2.67;;;1.30;;
36283;SDS011;56085;48.910;9.478;2023-11-21T14:46:21;2.22;;;1.00;;
36283;SDS011;56085;48.910;9.478;2023-11-21T14:48:46;3.10;;;1.05;;
36283;SDS011;56085;48.910;9.478;2023-11-21T14:51:25;1.92;;;1.00;;
36283;SDS011;56085;48.910;9.478;2023-11-21T14:53:53;2.25;;;0.98;;
36283;SDS011;56085;48.910;9.478;2023-11-21T14:56:22;2.08;;;1.20;;
36283;SDS011;56085;48.910;9.478;2023-11-21T14:58:58;1.33;;;0.80;;
36283;SDS011;56085;48.910;9.478;2023-11-21T15:01:30;3.08;;;1.40;;
36283;SDS011;56085;48.910;9.478;2023-11-21T15:04:15;3.92;;;1.67;;